createdAt,value
2023-05-01T00:00:05.945Z,42.2
2023-05-01T00:05:02.546Z,43.4
2023-05-01T00:10:00.756Z,40.7
2023-05-01T00:15:00.755Z,30.2
2023-05-01T00:20:00.713Z,44.9
2023-05-01T00:25:00.817Z,59.0
2023-05-01T00:30:00.680Z,42.4
2023-05-01T00:35:00.748Z,42.0
2023-05-01T00:40:00.734Z,41.0
2023-05-01T00:45:00.865Z,58.5
2023-05-01T00:50:00.715Z,71.0
2023-05-01T00:55:00.761Z,78.1
2023-05-01T01:00:00.797Z,67.5
2023-05-01T01:05:00.812Z,63.9
2023-05-01T01:10:00.729Z,67.5
2023-05-01T01:15:00.759Z,45.8
2023-05-01T01:20:00.921Z,45.0
2023-05-01T01:25:00.692Z,45.0
2023-05-01T01:30:00.769Z,45.0
2023-05-01T01:35:00.732Z,45.0
2023-05-01T01:40:00.705Z,45.0
2023-05-01T01:45:00.752Z,45.0
2023-05-01T01:50:00.687Z,45.0
2023-05-01T01:55:00.905Z,45.0
2023-05-01T02:00:00.727Z,63.8
2023-05-01T02:05:00.675Z,75.0
2023-05-01T02:10:00.707Z,48.6
2023-05-01T02:15:00.735Z,55.8
2023-05-01T02:20:00.744Z,67.3
2023-05-01T02:25:00.706Z,62.1
2023-05-01T02:30:00.765Z,67.5
2023-05-01T02:35:00.714Z,67.5
2023-05-01T02:40:00.760Z,67.5
2023-05-01T02:45:00.719Z,67.5
2023-05-01T02:50:00.724Z,67.5
2023-05-01T02:55:00.756Z,67.5
2023-05-01T03:00:00.776Z,45.7
2023-05-01T03:05:00.719Z,45.0
2023-05-01T03:10:00.742Z,45.0
2023-05-01T03:15:00.738Z,45.0
2023-05-01T03:20:00.796Z,45.0
2023-05-01T03:25:00.760Z,45.0
2023-05-01T03:30:00.812Z,45.0
2023-05-01T03:35:01.104Z,45.0
2023-05-01T03:40:00.720Z,45.0
2023-05-01T03:45:00.744Z,40.7
2023-05-01T03:50:00.692Z,54.7
2023-05-01T03:55:00.731Z,67.4
2023-05-01T04:00:00.756Z,67.5
2023-05-01T04:05:00.695Z,45.2
2023-05-01T04:10:00.699Z,45.0
2023-05-01T04:15:00.732Z,51.0
2023-05-01T04:20:00.757Z,67.4
2023-05-01T04:25:00.826Z,67.5
2023-05-01T04:30:01.183Z,68.4
2023-05-01T04:35:01.344Z,67.5
2023-05-01T04:40:00.782Z,66.9
2023-05-01T04:45:00.726Z,54.9
2023-05-01T04:50:00.737Z,45.2
2023-05-01T04:55:00.715Z,45.0
2023-05-01T05:00:01.235Z,45.0
2023-05-01T05:05:00.764Z,45.0
2023-05-01T05:10:00.762Z,66.2
2023-05-01T05:15:00.753Z,66.6
2023-05-01T05:20:00.698Z,87.0
2023-05-01T05:25:00.762Z,146.5
2023-05-01T05:30:00.790Z,70.8
2023-05-01T05:35:00.791Z,142.0
2023-05-01T05:40:00.699Z,128.9
2023-05-01T05:45:00.715Z,151.5
2023-05-01T05:50:00.757Z,145.8
2023-05-01T05:55:00.697Z,151.7
2023-05-01T06:00:00.737Z,146.0
2023-05-01T06:05:00.906Z,124.8
2023-05-01T06:10:00.722Z,138.6
2023-05-01T06:15:00.759Z,147.7
2023-05-01T06:20:00.749Z,124.6
2023-05-01T06:25:00.789Z,160.1
2023-05-01T06:30:00.763Z,123.5
2023-05-01T06:35:00.743Z,155.7
2023-05-01T06:40:00.685Z,174.5
2023-05-01T06:45:00.810Z,154.3
2023-05-01T06:50:06.149Z,165.6
2023-05-01T06:55:00.711Z,127.8
2023-05-01T07:00:00.663Z,174.6
2023-05-01T07:05:00.747Z,147.0
2023-05-01T07:10:01.158Z,164.9
2023-05-01T07:15:00.728Z,150.7
2023-05-01T07:20:00.715Z,163.6
2023-05-01T07:25:00.720Z,153.1
2023-05-01T07:30:00.744Z,148.6
2023-05-01T07:35:00.717Z,145.4
2023-05-01T07:40:00.770Z,159.3
2023-05-01T07:45:01.933Z,130.7
2023-05-01T07:50:00.779Z,129.1
2023-05-01T07:55:00.840Z,142.9
2023-05-01T08:00:00.790Z,157.3
2023-05-01T08:05:01.598Z,173.3
2023-05-01T08:10:02.081Z,142.9
2023-05-01T08:15:00.730Z,160.4
2023-05-01T08:20:00.745Z,159.1
2023-05-01T08:25:00.720Z,155.3
2023-05-01T08:30:00.724Z,185.1
2023-05-01T08:35:00.708Z,143.8
2023-05-01T08:40:00.726Z,162.2
2023-05-01T08:45:00.828Z,165.6
2023-05-01T08:50:00.767Z,174.0
2023-05-01T08:55:00.710Z,162.2
2023-05-01T09:00:00.845Z,179.1
2023-05-01T09:05:00.771Z,159.0
2023-05-01T09:10:00.772Z,166.1
2023-05-01T09:15:00.726Z,161.3
2023-05-01T09:20:00.794Z,155.7
2023-05-01T09:25:00.696Z,151.6
2023-05-01T09:30:00.670Z,150.0
2023-05-01T09:35:00.720Z,157.3
2023-05-01T09:40:00.712Z,170.2
2023-05-01T09:45:00.697Z,156.0
2023-05-01T09:50:00.715Z,157.9
2023-05-01T09:55:00.705Z,158.5
2023-05-01T10:00:00.707Z,152.6
2023-05-01T10:05:00.885Z,163.0
2023-05-01T10:10:03.437Z,163.4
2023-05-01T10:15:26.835Z,145.6
2023-05-01T10:20:00.687Z,167.0
2023-05-01T10:25:00.717Z,154.8
2023-05-01T10:30:00.698Z,150.8
2023-05-01T10:35:00.706Z,176.6
2023-05-01T10:40:00.757Z,166.4
2023-05-01T10:45:00.732Z,152.7
2023-05-01T10:50:00.689Z,164.7
2023-05-01T10:55:00.738Z,172.1
2023-05-01T11:00:00.728Z,158.0
2023-05-01T11:05:01.873Z,160.8
2023-05-01T11:10:00.880Z,102.8
2023-05-01T11:15:00.709Z,165.1
2023-05-01T11:20:00.737Z,173.6
2023-05-01T11:25:00.719Z,180.8
2023-05-01T11:30:00.748Z,179.2
2023-05-01T11:35:00.922Z,154.5
2023-05-01T11:40:00.739Z,158.9
2023-05-01T11:45:00.723Z,179.6
2023-05-01T11:50:00.742Z,99.1
2023-05-01T11:55:02.191Z,104.1
2023-05-01T12:00:00.925Z,93.0
2023-05-01T12:05:02.480Z,156.6
2023-05-01T12:10:00.790Z,107.6
2023-05-01T12:15:01.120Z,165.8
2023-05-01T12:20:00.724Z,166.8
2023-05-01T12:25:01.067Z,175.7
2023-05-01T12:30:00.760Z,172.2
2023-05-01T12:35:02.037Z,191.1
2023-05-01T12:40:00.697Z,184.7
2023-05-01T12:45:01.486Z,197.6
2023-05-01T12:50:01.175Z,150.5
2023-05-01T12:55:00.686Z,158.1
2023-05-01T13:00:01.658Z,162.7
2023-05-01T13:05:00.725Z,149.6
2023-05-01T13:10:02.577Z,178.7
2023-05-01T13:15:00.720Z,160.4
2023-05-01T13:20:02.869Z,197.0
2023-05-01T13:25:00.859Z,177.3
2023-05-01T13:30:02.645Z,169.6
2023-05-01T13:35:00.745Z,150.4
2023-05-01T13:40:01.748Z,183.2
2023-05-01T13:45:00.808Z,173.3
2023-05-01T13:50:02.434Z,165.5
2023-05-01T13:55:06.366Z,168.4
2023-05-01T14:00:00.713Z,161.6
2023-05-01T14:05:02.291Z,167.7
2023-05-01T14:10:00.771Z,87.2
2023-05-01T14:15:03.206Z,183.0
2023-05-01T14:20:00.805Z,77.8
2023-05-01T14:25:01.989Z,168.4
2023-05-01T14:30:00.723Z,185.6
2023-05-01T14:35:00.877Z,204.0
2023-05-01T14:40:00.693Z,194.9
2023-05-01T14:45:01.469Z,171.9
2023-05-01T14:50:00.800Z,257.8
2023-05-01T14:55:01.463Z,218.4
2023-05-01T15:00:01.051Z,180.0
2023-05-01T15:05:01.529Z,182.0
2023-05-01T15:10:01.275Z,168.5
2023-05-01T15:15:01.254Z,162.7
2023-05-01T15:20:01.051Z,180.2
2023-05-01T15:25:01.700Z,190.7
2023-05-01T15:30:01.122Z,209.2
2023-05-01T15:35:01.686Z,175.1
2023-05-01T15:40:01.248Z,189.0
2023-05-01T15:45:01.597Z,205.3
2023-05-01T15:50:02.659Z,177.7
2023-05-01T15:55:00.748Z,184.9
2023-05-01T16:00:02.442Z,202.2
2023-05-01T16:05:00.860Z,193.4
2023-05-01T16:10:02.825Z,190.2
2023-05-01T16:15:00.758Z,182.6
2023-05-01T16:20:03.176Z,200.0
2023-05-01T16:25:00.863Z,203.0
2023-05-01T16:30:02.437Z,193.1
2023-05-01T16:35:00.674Z,190.8
2023-05-01T16:40:03.123Z,201.5
2023-05-01T16:45:00.708Z,200.9
2023-05-01T16:50:02.796Z,204.8
2023-05-01T16:55:00.808Z,194.0
2023-05-01T17:00:03.170Z,198.1
2023-05-01T17:05:00.714Z,192.7
2023-05-01T17:10:02.538Z,205.5
2023-05-01T17:15:00.717Z,203.8
2023-05-01T17:20:02.544Z,200.9
2023-05-01T17:25:00.677Z,205.1
2023-05-01T17:30:02.557Z,197.0
2023-05-01T17:35:01.612Z,201.2
2023-05-01T17:40:02.697Z,181.5
2023-05-01T17:45:00.683Z,194.5
2023-05-01T17:50:02.307Z,202.1
2023-05-01T17:55:00.709Z,221.8
2023-05-01T18:00:02.863Z,247.1
2023-05-01T18:05:01.970Z,247.5
2023-05-01T18:10:02.638Z,247.5
2023-05-01T18:15:00.749Z,247.5
2023-05-01T18:20:02.283Z,247.5
2023-05-01T18:25:00.820Z,247.5
2023-05-01T18:30:02.439Z,226.3
2023-05-01T18:35:00.724Z,225.0
2023-05-01T18:40:02.005Z,225.0
2023-05-01T18:45:00.747Z,225.0
2023-05-01T18:50:02.088Z,225.0
2023-05-01T18:55:00.668Z,225.0
2023-05-01T19:00:02.224Z,225.0
2023-05-01T19:05:01.217Z,225.0
2023-05-01T19:10:02.378Z,252.5
2023-05-01T19:15:00.743Z,269.9
2023-05-01T19:20:02.278Z,270.0
2023-05-01T19:25:00.818Z,270.0
2023-05-01T19:30:02.971Z,270.0
2023-05-01T19:35:00.840Z,270.0
2023-05-01T19:40:02.166Z,270.0
2023-05-01T19:45:00.727Z,270.0
2023-05-01T19:50:02.549Z,270.0
2023-05-01T19:55:00.746Z,251.7
2023-05-01T20:00:02.587Z,225.4
2023-05-01T20:05:00.882Z,257.5
2023-05-01T20:10:01.798Z,269.9
2023-05-01T20:15:00.831Z,270.0
2023-05-01T20:20:01.634Z,270.0
2023-05-01T20:25:00.795Z,270.0
2023-05-01T20:30:02.229Z,270.0
2023-05-01T20:35:00.728Z,270.0
2023-05-01T20:40:02.157Z,270.0
2023-05-01T20:45:00.718Z,261.2
2023-05-01T20:50:02.736Z,247.6
2023-05-01T20:55:00.742Z,247.5
2023-05-01T21:00:02.878Z,247.5
2023-05-01T21:05:00.714Z,247.5
2023-05-01T21:10:01.756Z,247.5
2023-05-01T21:15:00.735Z,247.5
2023-05-01T21:20:02.124Z,247.5
2023-05-01T21:25:00.729Z,247.5
2023-05-01T21:30:02.931Z,247.5
2023-05-01T21:35:00.738Z,247.5
2023-05-01T21:40:02.278Z,247.5
2023-05-01T21:45:00.731Z,235.7
2023-05-01T21:50:01.999Z,225.4
2023-05-01T21:55:00.703Z,236.9
2023-05-01T22:00:01.955Z,202.8
2023-05-01T22:05:00.688Z,202.5
2023-05-01T22:10:02.255Z,202.5
2023-05-01T22:15:00.751Z,223.5
2023-05-01T22:20:02.228Z,225.0
2023-05-01T22:25:00.686Z,203.5
2023-05-01T22:30:02.981Z,202.5
2023-05-01T22:35:01.006Z,202.5
2023-05-01T22:40:02.392Z,202.5
2023-05-01T22:45:00.768Z,202.5
2023-05-01T22:50:02.922Z,202.5
2023-05-01T22:55:00.715Z,202.8
2023-05-01T23:00:02.667Z,202.4
2023-05-01T23:05:00.690Z,201.6
2023-05-01T23:10:02.282Z,201.7
2023-05-01T23:15:00.714Z,201.1
2023-05-01T23:20:02.321Z,210.4
2023-05-01T23:25:00.686Z,232.8
2023-05-01T23:30:02.419Z,226.7
2023-05-01T23:35:00.705Z,203.0
2023-05-01T23:40:02.330Z,203.5
2023-05-01T23:45:00.695Z,202.2
2023-05-01T23:50:02.706Z,203.9
2023-05-01T23:55:00.677Z,195.2
